TimeCDT,TemperatureF,Dew PointF,Humidity,Sea Level PressureIn,VisibilityMPH,Wind Direction,Wind SpeedMPH,Gust SpeedMPH,PrecipitationIn,Events,Conditions,WindDirDegrees,DateUTC
12:14 AM,55.4,53.6,94,29.89,10.0,Calm,Calm,-,N/A,,Clear,0,2013-08-02 05:14:00
12:34 AM,55.4,53.6,94,29.89,10.0,Calm,Calm,-,N/A,,Scattered Clouds,0,2013-08-02 05:34:00
12:55 AM,53.6,51.8,94,29.89,10.0,Calm,Calm,-,N/A,,Clear,0,2013-08-02 05:55:00
1:15 AM,53.6,51.8,94,29.88,10.0,NW,3.5,-,N/A,,Clear,310,2013-08-02 06:15:00
1:35 AM,53.6,51.8,94,29.88,10.0,NNW,3.5,-,N/A,,Clear,330,2013-08-02 06:35:00
1:54 AM,53.6,50.0,88,29.87,10.0,Calm,Calm,-,N/A,,Scattered Clouds,0,2013-08-02 06:54:00
2:15 AM,53.6,50.0,88,29.88,10.0,Calm,Calm,-,N/A,,Clear,0,2013-08-02 07:15:00
2:34 AM,53.6,50.0,88,29.89,10.0,Calm,Calm,-,N/A,,Clear,0,2013-08-02 07:34:00
2:55 AM,53.6,50.0,88,29.88,10.0,Calm,Calm,-,N/A,,Clear,0,2013-08-02 07:55:00
3:14 AM,53.6,50.0,88,29.88,7.0,Calm,Calm,-,N/A,,Clear,0,2013-08-02 08:14:00
3:35 AM,51.8,50.0,94,29.90,10.0,Calm,Calm,-,N/A,,Clear,0,2013-08-02 08:35:00
3:55 AM,50.0,48.2,94,29.90,5.0,Calm,Calm,-,N/A,,Clear,0,2013-08-02 08:55:00
4:14 AM,50.0,48.2,94,29.90,7.0,Calm,Calm,-,N/A,,Clear,0,2013-08-02 09:14:00
4:34 AM,50.0,50.0,100,29.90,10.0,Calm,Calm,-,N/A,,Clear,0,2013-08-02 09:34:00
4:55 AM,50.0,50.0,100,29.90,4.0,Calm,Calm,-,N/A,,Clear,0,2013-08-02 09:55:00
5:14 AM,50.0,50.0,100,29.90,10.0,Calm,Calm,-,N/A,,Clear,0,2013-08-02 10:14:00
5:35 AM,50.0,50.0,100,29.91,3.0,Calm,Calm,-,N/A,,Clear,0,2013-08-02 10:35:00
5:54 AM,50.0,50.0,100,29.91,10.0,Calm,Calm,-,N/A,,Clear,0,2013-08-02 10:54:00
6:15 AM,50.0,50.0,100,29.92,10.0,Calm,Calm,-,N/A,,Clear,0,2013-08-02 11:15:00
6:35 AM,50.0,50.0,100,29.92,7.0,Calm,Calm,-,N/A,,Clear,0,2013-08-02 11:35:00
6:55 AM,51.8,51.8,100,29.93,10.0,Calm,Calm,-,N/A,,Clear,0,2013-08-02 11:55:00
7:14 AM,53.6,51.8,94,29.93,10.0,Calm,Calm,-,N/A,,Clear,0,2013-08-02 12:14:00
7:34 AM,55.4,53.6,94,29.92,10.0,Calm,Calm,-,N/A,,Clear,0,2013-08-02 12:34:00
7:55 AM,59.0,55.4,88,29.93,10.0,North,4.6,-,N/A,,Clear,350,2013-08-02 12:55:00
8:14 AM,62.6,59.0,88,29.93,10.0,North,3.5,-,N/A,,Clear,350,2013-08-02 13:14:00
8:34 AM,64.4,55.4,73,29.93,10.0,NNW,5.8,-,N/A,,Clear,340,2013-08-02 13:34:00
8:54 AM,64.4,51.8,64,29.95,10.0,North,6.9,-,N/A,,Clear,360,2013-08-02 13:54:00
9:15 AM,68.0,51.8,56,29.96,10.0,North,5.8,-,N/A,,Clear,350,2013-08-02 14:15:00
9:34 AM,68.0,51.8,56,29.96,10.0,North,6.9,-,N/A,,Clear,350,2013-08-02 14:34:00
9:54 AM,68.0,50.0,52,29.96,10.0,North,4.6,-,N/A,,Clear,360,2013-08-02 14:54:00
10:14 AM,69.8,51.8,53,29.96,10.0,North,6.9,-,N/A,,Clear,360,2013-08-02 15:14:00
10:34 AM,69.8,51.8,53,29.96,10.0,NNW,8.1,-,N/A,,Clear,330,2013-08-02 15:34:00
10:54 AM,69.8,51.8,53,29.96,10.0,NNW,6.9,-,N/A,,Clear,340,2013-08-02 15:54:00
11:14 AM,69.8,50.0,49,29.97,10.0,North,4.6,-,N/A,,Clear,10,2013-08-02 16:14:00
11:35 AM,69.8,48.2,46,29.97,10.0,North,5.8,-,N/A,,Clear,350,2013-08-02 16:35:00
11:54 AM,73.4,48.2,41,29.97,10.0,North,4.6,-,N/A,,Clear,360,2013-08-02 16:54:00
12:15 PM,73.4,46.4,38,29.97,10.0,NNW,5.8,-,N/A,,Scattered Clouds,340,2013-08-02 17:15:00
12:34 PM,73.4,46.4,38,29.97,10.0,NNW,5.8,-,N/A,,Mostly Cloudy,330,2013-08-02 17:34:00
12:54 PM,73.4,46.4,38,29.97,10.0,NW,10.4,17.3,N/A,,Scattered Clouds,320,2013-08-02 17:54:00
1:14 PM,69.8,46.4,43,29.97,10.0,NNE,4.6,-,N/A,,Scattered Clouds,20,2013-08-02 18:14:00
1:34 PM,73.4,46.4,38,29.97,10.0,NNW,8.1,19.6,N/A,,Scattered Clouds,340,2013-08-02 18:34:00
1:54 PM,73.4,46.4,38,29.97,10.0,NW,8.1,19.6,N/A,,Scattered Clouds,320,2013-08-02 18:54:00
2:15 PM,73.4,46.4,38,29.98,10.0,NW,6.9,-,N/A,,Mostly Cloudy,320,2013-08-02 19:15:00
2:34 PM,73.4,46.4,38,29.98,10.0,NW,10.4,-,N/A,,Scattered Clouds,320,2013-08-02 19:34:00
2:54 PM,73.4,48.2,41,29.98,10.0,NNW,9.2,16.1,N/A,,Scattered Clouds,330,2013-08-02 19:54:00
3:14 PM,73.4,46.4,38,29.98,10.0,NW,8.1,-,N/A,,Scattered Clouds,310,2013-08-02 20:14:00
3:35 PM,73.4,48.2,41,29.98,10.0,WNW,10.4,-,N/A,,Clear,300,2013-08-02 20:35:00
3:54 PM,73.4,48.2,41,29.98,10.0,WNW,8.1,-,N/A,,Clear,300,2013-08-02 20:54:00
4:14 PM,73.4,48.2,41,29.98,10.0,WNW,9.2,-,N/A,,Clear,300,2013-08-02 21:14:00
4:34 PM,71.6,48.2,43,29.98,10.0,NW,11.5,16.1,N/A,,Clear,310,2013-08-02 21:34:00
4:54 PM,73.4,48.2,41,29.98,10.0,NW,8.1,-,N/A,,Clear,310,2013-08-02 21:54:00
5:14 PM,71.6,46.4,41,29.98,10.0,NW,11.5,-,N/A,,Clear,310,2013-08-02 22:14:00
5:35 PM,69.8,46.4,43,29.98,10.0,WNW,9.2,-,N/A,,Clear,300,2013-08-02 22:35:00
5:54 PM,71.6,48.2,43,29.99,10.0,NNW,8.1,-,N/A,,Clear,330,2013-08-02 22:54:00
6:14 PM,69.8,48.2,46,29.99,10.0,Calm,Calm,-,N/A,,Clear,0,2013-08-02 23:14:00
6:34 PM,71.6,50.0,46,29.99,10.0,Calm,Calm,-,N/A,,Clear,0,2013-08-02 23:34:00
6:54 PM,69.8,46.4,43,30.00,10.0,NW,10.4,-,N/A,,Clear,310,2013-08-02 23:54:00
7:14 PM,69.8,46.4,43,30.01,10.0,NW,8.1,-,N/A,,Clear,320,2013-08-03 00:14:00
7:34 PM,69.8,48.2,46,30.01,10.0,Calm,Calm,-,N/A,,Clear,0,2013-08-03 00:34:00
7:54 PM,69.8,50.0,49,30.01,10.0,Calm,Calm,-,N/A,,Clear,0,2013-08-03 00:54:00
8:14 PM,64.4,50.0,59,30.02,10.0,Calm,Calm,-,N/A,,Clear,0,2013-08-03 01:14:00
8:35 PM,64.4,50.0,59,30.02,10.0,Calm,Calm,-,N/A,,Clear,0,2013-08-03 01:35:00
8:54 PM,60.8,50.0,68,30.02,10.0,Calm,Calm,-,N/A,,Clear,0,2013-08-03 01:54:00
9:14 PM,59.0,50.0,72,30.03,10.0,Calm,Calm,-,N/A,,Clear,0,2013-08-03 02:14:00
9:34 PM,55.4,50.0,82,30.04,10.0,Calm,Calm,-,N/A,,Clear,0,2013-08-03 02:34:00
9:54 PM,55.4,48.2,77,30.05,10.0,Calm,Calm,-,N/A,,Clear,0,2013-08-03 02:54:00
10:14 PM,55.4,48.2,77,30.05,10.0,Calm,Calm,-,N/A,,Clear,0,2013-08-03 03:14:00
10:34 PM,53.6,46.4,77,30.05,10.0,Calm,Calm,-,N/A,,Clear,0,2013-08-03 03:34:00
10:54 PM,53.6,46.4,77,30.06,10.0,Calm,Calm,-,N/A,,Clear,0,2013-08-03 03:54:00
11:14 PM,53.6,48.2,82,30.06,10.0,Calm,Calm,-,N/A,,Clear,0,2013-08-03 04:14:00
11:34 PM,50.0,46.4,87,30.07,10.0,Calm,Calm,-,N/A,,Clear,0,2013-08-03 04:34:00
11:54 PM,50.0,46.4,87,30.07,10.0,Calm,Calm,-,N/A,,Clear,0,2013-08-03 04:54:00